Terminal Aerodrome Forecast
Issued by NWS

Home | Current Version | Previous Version | Text Only | Print | Product List | Glossary On
Versions: 1 2 3 4 5 6 7 8 9 10 11 12 13 14 15 16 17 18 19 20 21 22 23 24 25
000
FTUS41 KPBZ 010540
TAFAGC
TAF
KAGC 010540Z 0106/0206 20007KT P6SM BKN015
      TEMPO 0110/0113 OVC007
     FM011600 27010KT P6SM BKN035
     FM012000 30010KT P6SM SCT040
     FM020000 33004KT P6SM SCT250=

USA.gov is the U.S. government's official web portal to all federal, state and local government web resources and services.